Time;durP1;ratioP1;P1;durP2;ratioP2;P2;SDS_P1;SDS_P2;PMS_P1;PMS_P2;Temp;Humidity;BMP_temperature;BMP_pressure;BME280_temperature;BME280_humidity;BME280_pressure;Samples;Min_cycle;Max_cycle;Signal;HPM_P1;HPM_P2
2023/08/17 00:00:56;;;;;;;0.28;0.20;;;15.50;99.90;;;;;;5069355;28;20040;-71
2023/08/17 00:03:22;;;;;;;1.35;0.20;;;15.60;99.90;;;;;;5065094;28;20175;-71
2023/08/17 00:05:48;;;;;;;0.10;0.00;;;15.50;99.90;;;;;;5067753;28;20049;-71
2023/08/17 00:08:14;;;;;;;1.67;0.32;;;15.50;99.90;;;;;;5070010;28;20515;-71
2023/08/17 00:10:39;;;;;;;0.35;0.20;;;15.50;99.90;;;;;;5070625;28;20078;-71
2023/08/17 00:13:05;;;;;;;0.65;0.20;;;15.50;99.90;;;;;;5064028;28;20092;-71
2023/08/17 00:15:32;;;;;;;0.15;0.08;;;15.50;99.90;;;;;;5070388;28;20052;-71
2023/08/17 00:17:57;;;;;;;0.38;0.25;;;15.50;99.90;;;;;;5070173;28;20036;-71
2023/08/17 00:20:23;;;;;;;1.60;0.15;;;15.50;99.90;;;;;;5069333;28;20381;-71
2023/08/17 00:22:49;;;;;;;0.00;0.00;;;15.50;99.90;;;;;;5066326;28;20044;-71
2023/08/17 00:25:15;;;;;;;1.00;0.28;;;15.50;99.90;;;;;;5049870;28;20094;-71
2023/08/17 00:27:40;;;;;;;0.30;0.20;;;15.40;99.90;;;;;;5068168;28;20037;-71
2023/08/17 00:30:07;;;;;;;0.08;0.05;;;15.50;99.90;;;;;;5064649;28;20029;-71
2023/08/17 00:32:32;;;;;;;0.35;0.00;;;15.40;99.90;;;;;;5064584;28;20101;-71
2023/08/17 00:34:58;;;;;;;1.27;0.10;;;15.50;99.90;;;;;;5067663;28;20044;-71
2023/08/17 00:37:24;;;;;;;0.38;0.10;;;15.40;99.90;;;;;;5069381;28;20468;-71
2023/08/17 00:39:49;;;;;;;0.00;0.00;;;15.40;99.90;;;;;;5069684;28;20036;-71
2023/08/17 00:42:15;;;;;;;0.00;0.00;;;15.40;99.90;;;;;;5067908;28;20080;-70
2023/08/17 00:44:41;;;;;;;0.00;0.00;;;15.40;99.90;;;;;;5068939;28;20045;-71
2023/08/17 00:47:07;;;;;;;0.47;0.10;;;15.40;99.90;;;;;;5064342;28;20411;-71
2023/08/17 00:49:34;;;;;;;0.20;0.08;;;15.40;99.90;;;;;;5069256;28;20051;-71
2023/08/17 00:52:02;;;;;;;0.08;0.08;;;15.40;99.90;;;;;;5067513;28;20116;-71
2023/08/17 00:54:29;;;;;;;0.40;0.10;;;15.40;99.90;;;;;;5069764;28;20047;-71
2023/08/17 00:56:55;;;;;;;0.13;0.10;;;15.40;99.90;;;;;;5068669;28;20036;-71
2023/08/17 00:59:22;;;;;;;0.17;0.10;;;15.40;99.90;;;;;;5067950;28;20403;-71
2023/08/17 01:01:48;;;;;;;0.00;0.00;;;15.30;99.90;;;;;;5063323;28;20373;-71
2023/08/17 01:04:14;;;;;;;0.00;0.00;;;15.30;99.90;;;;;;5068733;28;20084;-71
2023/08/17 01:06:39;;;;;;;0.32;0.03;;;15.30;99.90;;;;;;5070167;28;20072;-71
2023/08/17 01:09:06;;;;;;;0.20;0.10;;;15.30;99.90;;;;;;5068576;28;20083;-71
2023/08/17 01:11:38;;;;;;;0.22;0.15;;;15.30;99.90;;;;;;5067716;28;20047;-70
2023/08/17 01:14:20;;;;;;;0.10;0.08;;;15.30;99.90;;;;;;5068999;28;20072;-70
2023/08/17 01:17:15;;;;;;;0.13;0.10;;;15.30;99.90;;;;;;5068849;28;20040;-70
2023/08/17 01:19:42;;;;;;;0.10;0.10;;;15.20;99.90;;;;;;5069132;28;20040;-71
2023/08/17 01:22:10;;;;;;;1.02;0.10;;;15.20;99.90;;;;;;5064418;28;20048;-71
2023/08/17 01:24:36;;;;;;;0.17;0.10;;;15.20;99.90;;;;;;5067321;28;20063;-71
2023/08/17 01:27:02;;;;;;;0.05;0.03;;;15.20;99.90;;;;;;5067638;28;20068;-70
2023/08/17 01:29:28;;;;;;;0.20;0.00;;;15.20;99.90;;;;;;5067141;28;20136;-71
2023/08/17 01:32:03;;;;;;;0.98;0.20;;;15.20;99.90;;;;;;5064953;28;20398;-70
2023/08/17 01:34:32;;;;;;;0.22;0.10;;;15.20;99.90;;;;;;5064699;28;20618;-70
2023/08/17 01:37:01;;;;;;;0.10;0.10;;;15.20;99.90;;;;;;5069307;28;20039;-70
2023/08/17 01:39:32;;;;;;;0.10;0.10;;;15.10;99.90;;;;;;5067873;28;20056;-70
2023/08/17 01:42:00;;;;;;;0.45;0.20;;;15.10;99.90;;;;;;5067617;28;20036;-71
2023/08/17 01:44:27;;;;;;;0.00;0.00;;;15.10;99.90;;;;;;5048923;28;20047;-71
2023/08/17 01:46:53;;;;;;;0.32;0.08;;;15.00;99.90;;;;;;5067219;28;20181;-71
2023/08/17 01:49:19;;;;;;;0.30;0.10;;;15.10;99.90;;;;;;5066244;28;20052;-71
2023/08/17 01:51:44;;;;;;;0.22;0.03;;;15.00;99.90;;;;;;5066266;28;20055;-71
2023/08/17 01:54:10;;;;;;;0.40;0.20;;;15.00;99.90;;;;;;5068382;28;20143;-71
2023/08/17 01:56:36;;;;;;;0.10;0.10;;;15.00;99.90;;;;;;5069461;28;20048;-71
2023/08/17 01:59:01;;;;;;;3.42;0.17;;;15.00;99.90;;;;;;5065879;28;20048;-71
2023/08/17 02:01:28;;;;;;;0.10;0.00;;;15.00;99.90;;;;;;5067297;28;20432;-71
2023/08/17 02:03:53;;;;;;;2.05;0.10;;;15.00;99.90;;;;;;5068266;28;20123;-71
2023/08/17 02:06:19;;;;;;;0.10;0.03;;;15.00;99.90;;;;;;5067733;28;20067;-71
2023/08/17 02:08:45;;;;;;;0.30;0.10;;;15.00;99.90;;;;;;5064749;28;20064;-71
2023/08/17 02:11:11;;;;;;;1.80;0.28;;;15.00;99.90;;;;;;5069748;28;20040;-70
2023/08/17 02:13:37;;;;;;;2.55;0.20;;;14.90;99.90;;;;;;5065833;28;20083;-71
2023/08/17 02:16:04;;;;;;;0.20;0.10;;;14.90;99.90;;;;;;5065197;28;20087;-70
2023/08/17 02:18:31;;;;;;;0.15;0.10;;;14.90;99.90;;;;;;5060620;28;20036;-71
2023/08/17 02:20:57;;;;;;;3.33;0.10;;;14.90;99.90;;;;;;5064124;28;20046;-70
2023/08/17 02:23:23;;;;;;;0.00;0.00;;;14.90;99.90;;;;;;5046414;28;20040;-70
2023/08/17 02:25:48;;;;;;;0.17;0.03;;;14.90;99.90;;;;;;5065409;28;20036;-70
2023/08/17 02:28:14;;;;;;;0.00;0.00;;;15.00;99.90;;;;;;5067046;28;20040;-70
2023/08/17 02:30:41;;;;;;;0.10;0.05;;;14.90;99.90;;;;;;5068483;28;20040;-70
2023/08/17 02:33:06;;;;;;;0.63;0.00;;;14.90;99.90;;;;;;5063750;28;20076;-70
2023/08/17 02:35:32;;;;;;;3.63;0.20;;;14.90;99.90;;;;;;5069962;28;20059;-70
2023/08/17 02:37:58;;;;;;;0.10;0.05;;;15.00;99.90;;;;;;5063696;28;20551;-70
2023/08/17 02:40:24;;;;;;;1.00;0.45;;;15.00;99.90;;;;;;5067811;28;20040;-70
2023/08/17 02:42:50;;;;;;;0.28;0.10;;;15.00;99.90;;;;;;5066387;28;20076;-70
2023/08/17 02:45:16;;;;;;;0.35;0.05;;;14.90;99.90;;;;;;5045865;28;20075;-70
2023/08/17 02:47:42;;;;;;;0.60;0.10;;;14.90;99.90;;;;;;5066210;28;20041;-70
2023/08/17 02:50:08;;;;;;;0.00;0.00;;;14.90;99.90;;;;;;5067089;28;20048;-70
2023/08/17 02:52:34;;;;;;;0.35;0.10;;;14.90;99.90;;;;;;5065427;28;20063;-69
2023/08/17 02:55:00;;;;;;;0.40;0.00;;;14.90;99.90;;;;;;5049809;28;20435;-70
2023/08/17 02:57:25;;;;;;;0.17;0.10;;;14.90;99.90;;;;;;5061221;28;20040;-69
2023/08/17 02:59:51;;;;;;;0.17;0.10;;;14.90;99.90;;;;;;5068766;28;20135;-69
2023/08/17 03:02:17;;;;;;;0.10;0.10;;;15.00;99.90;;;;;;5065460;28;20048;-70
2023/08/17 03:04:42;;;;;;;1.25;0.90;;;15.00;99.90;;;;;;5067703;28;20518;-69
2023/08/17 03:07:08;;;;;;;0.10;0.10;;;15.00;99.90;;;;;;5065906;28;20048;-70
2023/08/17 03:09:34;;;;;;;0.17;0.10;;;15.00;99.90;;;;;;5065314;28;20128;-70
2023/08/17 03:11:59;;;;;;;0.30;0.15;;;15.00;99.90;;;;;;5067292;28;20035;-70
2023/08/17 03:14:25;;;;;;;0.40;0.10;;;15.00;99.90;;;;;;5066631;28;20060;-71
2023/08/17 03:16:51;;;;;;;2.42;0.82;;;15.00;99.90;;;;;;5066644;28;20032;-70
2023/08/17 03:19:17;;;;;;;0.50;0.00;;;15.00;99.90;;;;;;5062749;28;20136;-69
2023/08/17 03:21:43;;;;;;;0.00;0.00;;;15.10;99.90;;;;;;5065680;28;20074;-70
2023/08/17 03:24:08;;;;;;;0.68;0.10;;;15.00;99.90;;;;;;5065793;28;20100;-71
2023/08/17 03:26:34;;;;;;;1.10;0.10;;;15.10;99.90;;;;;;5064502;28;20043;-70
2023/08/17 03:29:00;;;;;;;0.20;0.10;;;15.10;99.90;;;;;;5052260;28;20135;-70
2023/08/17 03:31:25;;;;;;;0.13;0.00;;;15.10;99.90;;;;;;5058282;28;20045;-70
2023/08/17 03:33:51;;;;;;;0.47;0.20;;;15.10;99.90;;;;;;5049434;28;20036;-70
2023/08/17 03:36:17;;;;;;;0.20;0.10;;;15.10;99.90;;;;;;5067143;28;20546;-70
2023/08/17 03:38:42;;;;;;;2.08;0.22;;;15.10;99.90;;;;;;5065236;28;20044;-69
2023/08/17 03:41:09;;;;;;;0.00;0.00;;;15.10;99.90;;;;;;5069423;28;20719;-70
2023/08/17 03:43:34;;;;;;;0.10;0.10;;;15.10;99.90;;;;;;5050176;28;20049;-71
2023/08/17 03:46:00;;;;;;;2.35;0.20;;;15.10;99.90;;;;;;5066036;28;20037;-70
2023/08/17 03:48:26;;;;;;;2.83;0.22;;;15.10;99.90;;;;;;5064715;28;20497;-70
2023/08/17 03:50:55;;;;;;;0.40;0.10;;;15.20;99.90;;;;;;5070669;28;20185;-70
2023/08/17 03:53:21;;;;;;;0.38;0.10;;;15.20;99.90;;;;;;5066974;28;20424;-69
2023/08/17 03:55:50;;;;;;;0.00;0.00;;;15.20;99.90;;;;;;5067755;28;20052;-70
2023/08/17 03:58:17;;;;;;;0.20;0.10;;;15.20;99.90;;;;;;5066083;28;20439;-70
2023/08/17 04:00:50;;;;;;;0.38;0.20;;;15.20;99.90;;;;;;5064204;28;20404;-71
2023/08/17 04:03:16;;;;;;;0.65;0.30;;;15.30;99.90;;;;;;5049662;28;20098;-70
2023/08/17 04:05:42;;;;;;;1.45;0.10;;;15.30;99.90;;;;;;5066418;28;20045;-71
2023/08/17 04:08:08;;;;;;;0.40;0.10;;;15.30;99.90;;;;;;5046695;28;20106;-70
2023/08/17 04:10:33;;;;;;;0.35;0.30;;;15.30;99.90;;;;;;5067582;28;20072;-70
2023/08/17 04:12:59;;;;;;;0.22;0.10;;;15.30;99.90;;;;;;5059953;28;20095;-70
2023/08/17 04:15:25;;;;;;;0.20;0.13;;;15.30;99.90;;;;;;5049373;28;20052;-70
2023/08/17 04:17:51;;;;;;;0.38;0.10;;;15.30;99.90;;;;;;5050006;28;20124;-71
2023/08/17 04:20:18;;;;;;;0.28;0.17;;;15.40;99.90;;;;;;5066050;28;20438;-70
2023/08/17 04:22:44;;;;;;;0.00;0.00;;;15.40;99.90;;;;;;5068671;28;20085;-71
2023/08/17 04:25:10;;;;;;;0.88;0.05;;;15.40;99.90;;;;;;5069309;28;20055;-70
2023/08/17 04:27:35;;;;;;;0.52;0.10;;;15.40;99.90;;;;;;5068604;28;20036;-70
2023/08/17 04:30:02;;;;;;;0.90;0.10;;;15.40;99.90;;;;;;5069214;28;20028;-71
2023/08/17 04:32:27;;;;;;;0.45;0.15;;;15.40;99.90;;;;;;5065171;28;20501;-70
2023/08/17 04:34:53;;;;;;;0.10;0.08;;;15.40;99.90;;;;;;5071711;28;20067;-71
2023/08/17 04:37:19;;;;;;;0.10;0.10;;;15.40;99.90;;;;;;5071012;28;20052;-70
2023/08/17 04:39:44;;;;;;;0.10;0.10;;;15.50;99.90;;;;;;5070833;28;20481;-71
2023/08/17 04:42:10;;;;;;;1.08;0.20;;;15.40;99.90;;;;;;5069955;28;20126;-70
2023/08/17 04:44:36;;;;;;;3.58;0.15;;;15.50;99.90;;;;;;5068245;28;20037;-70
2023/08/17 04:47:02;;;;;;;0.22;0.08;;;15.50;99.90;;;;;;5048173;28;20476;-70
2023/08/17 04:49:28;;;;;;;0.40;0.03;;;15.50;99.90;;;;;;5060806;28;20041;-70
2023/08/17 04:51:53;;;;;;;0.20;0.05;;;15.50;99.90;;;;;;5046136;28;20048;-71
2023/08/17 04:54:19;;;;;;;0.10;0.00;;;15.50;99.90;;;;;;5064113;28;20032;-71
2023/08/17 04:56:45;;;;;;;0.40;0.10;;;15.50;99.90;;;;;;5089215;28;20040;-71
2023/08/17 04:59:11;;;;;;;3.08;0.10;;;15.50;99.90;;;;;;5059092;28;20067;-71
2023/08/17 05:01:37;;;;;;;0.20;0.15;;;15.50;99.90;;;;;;5063113;28;20059;-70
2023/08/17 05:04:03;;;;;;;0.17;0.10;;;15.50;99.90;;;;;;5063544;28;20048;-70
2023/08/17 05:06:29;;;;;;;0.15;0.10;;;15.50;99.90;;;;;;5048341;28;20037;-71
2023/08/17 05:08:55;;;;;;;0.47;0.03;;;15.50;99.90;;;;;;5059011;28;20043;-71
2023/08/17 05:11:21;;;;;;;0.45;0.20;;;15.50;99.90;;;;;;5059500;28;20175;-70
2023/08/17 05:13:47;;;;;;;0.28;0.10;;;15.60;99.90;;;;;;5063053;28;20123;-71
2023/08/17 05:16:13;;;;;;;0.00;0.00;;;15.60;99.90;;;;;;5062748;28;20063;-70
2023/08/17 05:18:38;;;;;;;0.20;0.00;;;15.60;99.90;;;;;;5062880;28;20458;-71
2023/08/17 05:21:04;;;;;;;0.85;0.05;;;15.60;99.90;;;;;;5063026;28;20040;-70
2023/08/17 05:23:30;;;;;;;0.43;0.10;;;15.70;99.90;;;;;;5062287;28;20067;-71
2023/08/17 05:25:55;;;;;;;0.30;0.10;;;15.70;99.90;;;;;;5061577;28;20061;-70
2023/08/17 05:28:21;;;;;;;0.05;0.03;;;15.70;99.90;;;;;;5063574;28;20051;-71
2023/08/17 05:30:48;;;;;;;1.85;0.45;;;15.80;99.90;;;;;;5064800;28;20045;-70
2023/08/17 05:33:14;;;;;;;2.33;0.40;;;15.80;99.90;;;;;;5064244;28;20047;-70
2023/08/17 05:35:39;;;;;;;0.50;0.10;;;15.80;99.90;;;;;;5060878;28;20067;-71
2023/08/17 05:38:05;;;;;;;0.30;0.10;;;15.80;99.90;;;;;;5045412;28;20040;-71
2023/08/17 05:40:32;;;;;;;0.22;0.20;;;15.80;99.90;;;;;;5060847;28;20575;-70
2023/08/17 05:42:57;;;;;;;1.20;0.10;;;15.80;99.90;;;;;;5084674;28;20043;-71
2023/08/17 05:45:23;;;;;;;0.63;0.10;;;15.90;99.90;;;;;;5057731;28;20045;-70
2023/08/17 05:47:49;;;;;;;0.45;0.20;;;15.90;99.90;;;;;;5060810;28;20032;-70
2023/08/17 05:50:14;;;;;;;0.68;0.10;;;15.90;99.90;;;;;;5062724;28;20049;-71
2023/08/17 05:52:41;;;;;;;0.00;0.00;;;15.90;99.90;;;;;;5059936;28;20057;-71
2023/08/17 05:55:07;;;;;;;0.20;0.15;;;15.90;99.90;;;;;;5061759;28;20051;-72
2023/08/17 05:57:33;;;;;;;0.90;0.20;;;16.00;99.90;;;;;;5059907;28;20044;-70
2023/08/17 05:59:59;;;;;;;0.70;0.22;;;16.00;99.90;;;;;;5059942;28;20090;-70
2023/08/17 06:02:25;;;;;;;0.63;0.22;;;16.00;99.90;;;;;;5065394;28;20032;-70
2023/08/17 06:04:50;;;;;;;0.03;0.00;;;16.00;99.90;;;;;;5063016;28;20059;-70
2023/08/17 06:07:16;;;;;;;4.82;0.30;;;16.00;99.90;;;;;;5060969;28;20095;-70
2023/08/17 06:09:42;;;;;;;0.08;0.08;;;16.00;99.90;;;;;;5059904;28;20074;-69
2023/08/17 06:12:08;;;;;;;0.10;0.10;;;16.00;99.90;;;;;;5062639;28;20036;-70
2023/08/17 06:14:34;;;;;;;0.20;0.10;;;16.00;99.90;;;;;;5059867;28;20041;-70
2023/08/17 06:17:00;;;;;;;0.75;0.35;;;16.00;99.90;;;;;;5057863;28;20374;-69
2023/08/17 06:19:26;;;;;;;0.30;0.10;;;16.00;99.90;;;;;;5062798;28;20047;-71
2023/08/17 06:21:52;;;;;;;0.10;0.00;;;16.00;99.90;;;;;;5060817;28;20036;-69
2023/08/17 06:24:18;;;;;;;0.00;0.00;;;16.00;99.90;;;;;;5059816;28;20123;-69
2023/08/17 06:26:45;;;;;;;1.90;0.15;;;16.00;99.90;;;;;;5058557;28;20037;-69
2023/08/17 06:29:11;;;;;;;1.90;0.15;;;16.00;99.90;;;;;;5062089;28;20041;-68
2023/08/17 06:31:37;;;;;;;0.10;0.00;;;16.10;99.90;;;;;;5060149;28;20043;-69
2023/08/17 06:34:06;;;;;;;0.63;0.15;;;16.10;99.90;;;;;;5063357;28;20040;-70
2023/08/17 06:36:32;;;;;;;0.22;0.08;;;16.10;99.90;;;;;;5060045;28;20067;-69
2023/08/17 06:38:58;;;;;;;0.30;0.20;;;16.20;99.90;;;;;;5063091;28;20028;-69
2023/08/17 06:41:24;;;;;;;0.10;0.03;;;16.20;99.90;;;;;;5056319;28;20127;-69
2023/08/17 06:43:51;;;;;;;1.50;0.20;;;16.30;99.90;;;;;;5059705;28;20052;-69
2023/08/17 06:46:17;;;;;;;0.10;0.10;;;16.30;99.90;;;;;;5041855;28;20131;-70
2023/08/17 06:48:43;;;;;;;0.20;0.10;;;16.40;99.90;;;;;;5064867;28;20044;-70
2023/08/17 06:51:09;;;;;;;0.20;0.10;;;16.50;99.90;;;;;;5058686;28;20090;-70
2023/08/17 06:53:35;;;;;;;0.57;0.20;;;16.50;99.90;;;;;;5060450;28;20091;-70
2023/08/17 06:56:01;;;;;;;0.40;0.10;;;16.60;99.90;;;;;;5057341;28;20063;-70
2023/08/17 06:58:26;;;;;;;0.47;0.10;;;16.70;99.90;;;;;;5057825;28;20040;-70
2023/08/17 07:00:59;;;;;;;0.20;0.10;;;16.80;99.90;;;;;;5061147;28;20055;-70
2023/08/17 07:03:30;;;;;;;0.10;0.10;;;16.80;99.90;;;;;;5057180;28;20044;-70
2023/08/17 07:05:56;;;;;;;0.10;0.00;;;16.80;99.90;;;;;;5057193;28;20045;-71
2023/08/17 07:08:21;;;;;;;1.65;0.57;;;16.80;99.90;;;;;;5059008;28;20028;-70
2023/08/17 07:10:47;;;;;;;0.38;0.25;;;16.80;99.90;;;;;;5057715;28;20480;-69
2023/08/17 07:13:13;;;;;;;1.95;0.20;;;16.80;99.90;;;;;;5055327;28;20037;-69
2023/08/17 07:15:39;;;;;;;0.45;0.10;;;16.90;99.90;;;;;;5063125;28;20047;-70
2023/08/17 07:18:04;;;;;;;0.95;0.20;;;16.90;99.90;;;;;;5059161;28;20463;-70
2023/08/17 07:20:30;;;;;;;0.28;0.10;;;16.90;99.90;;;;;;5060144;28;20040;-70
2023/08/17 07:22:56;;;;;;;0.15;0.10;;;16.90;99.90;;;;;;5058615;28;21000;-70
2023/08/17 07:25:22;;;;;;;0.70;0.30;;;17.00;99.90;;;;;;5061862;28;20130;-69
2023/08/17 07:27:49;;;;;;;0.20;0.10;;;17.10;99.90;;;;;;5045637;28;20138;-69
2023/08/17 07:30:15;;;;;;;0.45;0.03;;;17.10;99.90;;;;;;5059423;28;20040;-70
2023/08/17 07:32:40;;;;;;;0.47;0.10;;;17.10;99.90;;;;;;5058968;28;20029;-69
2023/08/17 07:35:06;;;;;;;0.10;0.10;;;17.20;99.90;;;;;;5062000;28;20036;-70
2023/08/17 07:37:33;;;;;;;0.57;0.10;;;17.20;99.90;;;;;;5062243;28;20041;-70
2023/08/17 07:39:59;;;;;;;0.25;0.10;;;17.20;99.90;;;;;;5061730;28;20499;-68
2023/08/17 07:42:25;;;;;;;0.00;0.00;;;17.20;99.90;;;;;;5061788;28;20102;-69
2023/08/17 07:44:50;;;;;;;0.10;0.00;;;17.30;99.90;;;;;;5068193;28;20512;-68
2023/08/17 07:47:16;;;;;;;0.10;0.08;;;17.30;99.90;;;;;;5068483;28;20477;-69
2023/08/17 07:49:42;;;;;;;0.05;0.00;;;17.30;99.90;;;;;;5066985;28;20091;-70
2023/08/17 07:52:08;;;;;;;0.47;0.10;;;17.30;99.90;;;;;;5066179;28;20052;-69
2023/08/17 07:54:33;;;;;;;0.38;0.17;;;17.40;99.90;;;;;;5068351;28;20048;-69
2023/08/17 07:56:59;;;;;;;0.28;0.10;;;17.40;99.90;;;;;;5067010;28;20368;-70
2023/08/17 07:59:25;;;;;;;0.30;0.10;;;17.40;99.90;;;;;;5071815;28;20051;-69
2023/08/17 08:01:51;;;;;;;1.50;0.45;;;17.50;99.90;;;;;;5070001;28;20067;-70
2023/08/17 08:04:16;;;;;;;0.10;0.00;;;17.50;99.90;;;;;;5059512;28;20654;-70
2023/08/17 08:06:42;;;;;;;0.20;0.03;;;17.50;99.90;;;;;;5064003;28;20736;-69
2023/08/17 08:09:08;;;;;;;0.20;0.10;;;17.60;99.90;;;;;;5054747;28;20041;-69
2023/08/17 08:11:34;;;;;;;0.00;0.00;;;17.60;99.90;;;;;;5068355;28;20082;-69
2023/08/17 08:14:00;;;;;;;0.17;0.10;;;17.70;99.90;;;;;;5070528;28;20115;-68
2023/08/17 08:16:27;;;;;;;0.47;0.32;;;17.70;99.90;;;;;;5066843;28;20098;-69
2023/08/17 08:18:53;;;;;;;0.22;0.10;;;17.80;99.90;;;;;;5069101;28;20035;-69
2023/08/17 08:21:18;;;;;;;0.28;0.10;;;17.90;99.90;;;;;;5068604;28;20044;-69
2023/08/17 08:23:44;;;;;;;0.95;0.30;;;18.10;99.90;;;;;;5052053;28;20048;-69
2023/08/17 08:26:10;;;;;;;0.00;0.00;;;18.30;99.90;;;;;;5065742;28;20051;-69
2023/08/17 08:28:35;;;;;;;0.10;0.00;;;18.50;99.90;;;;;;5069303;28;20129;-69
2023/08/17 08:31:03;;;;;;;0.15;0.05;;;18.70;99.90;;;;;;5065010;28;20055;-69
2023/08/17 08:33:29;;;;;;;0.13;0.10;;;18.80;99.90;;;;;;5070348;28;20041;-69
2023/08/17 08:35:55;;;;;;;0.77;0.30;;;18.80;99.90;;;;;;5070512;28;20075;-70
2023/08/17 08:38:20;;;;;;;0.17;0.10;;;18.80;99.90;;;;;;5067973;28;20068;-69
2023/08/17 08:40:47;;;;;;;0.03;0.00;;;18.70;99.90;;;;;;5071664;28;20109;-70
2023/08/17 08:43:14;;;;;;;0.22;0.00;;;18.70;99.90;;;;;;5067132;28;20131;-69
2023/08/17 08:45:44;;;;;;;0.10;0.10;;;18.70;99.90;;;;;;5064202;28;20448;-70
2023/08/17 08:48:11;;;;;;;0.22;0.08;;;18.70;99.90;;;;;;5064290;28;20158;-70
2023/08/17 08:50:40;;;;;;;0.50;0.10;;;18.60;99.90;;;;;;5067006;28;20104;-69
2023/08/17 08:53:13;;;;;;;0.45;0.20;;;18.50;99.90;;;;;;5063081;28;20049;-69
2023/08/17 08:55:57;;;;;;;0.23;0.00;;;18.50;99.90;;;;;;5065687;28;20124;-70
2023/08/17 08:58:24;;;;;;;0.10;0.00;;;18.50;99.90;;;;;;5061828;28;20105;-70
2023/08/17 09:00:50;;;;;;;0.03;0.00;;;18.60;99.90;;;;;;5048494;28;20071;-72
2023/08/17 09:03:20;;;;;;;0.45;0.35;;;18.60;99.90;;;;;;5063963;28;20068;-69
2023/08/17 09:05:48;;;;;;;0.10;0.10;;;18.60;99.90;;;;;;5047598;28;20036;-70
2023/08/17 09:08:18;;;;;;;1.60;0.30;;;18.70;99.90;;;;;;5066352;28;20140;-70
2023/08/17 09:10:53;;;;;;;0.28;0.15;;;18.70;99.90;;;;;;5048456;28;20043;-70
2023/08/17 09:13:31;;;;;;;1.85;0.30;;;18.70;99.90;;;;;;5065307;28;20052;-70
2023/08/17 09:16:10;;;;;;;0.57;0.30;;;18.60;99.90;;;;;;5067068;28;20045;-70
2023/08/17 09:18:48;;;;;;;0.15;0.05;;;18.70;99.90;;;;;;5065723;28;20484;-70
2023/08/17 09:21:22;;;;;;;0.00;0.00;;;18.70;99.90;;;;;;5062861;28;20126;-70
2023/08/17 09:23:55;;;;;;;2.83;0.20;;;18.60;99.90;;;;;;5066098;28;20123;-70
2023/08/17 09:26:24;;;;;;;0.00;0.00;;;18.60;99.90;;;;;;5070164;28;20245;-70
2023/08/17 09:28:51;;;;;;;0.70;0.43;;;18.50;99.90;;;;;;5066297;28;20048;-70
2023/08/17 09:31:23;;;;;;;0.00;0.00;;;18.60;99.90;;;;;;5063120;28;20101;-70
2023/08/17 09:33:52;;;;;;;0.10;0.00;;;18.50;99.90;;;;;;5068947;28;20044;-70
2023/08/17 09:36:24;;;;;;;0.10;0.05;;;18.60;99.90;;;;;;5068579;28;20044;-70
2023/08/17 09:38:51;;;;;;;2.60;0.20;;;18.60;99.90;;;;;;5068844;28;20388;-71
2023/08/17 09:41:20;;;;;;;0.47;0.10;;;18.50;99.90;;;;;;5050117;28;20072;-70
2023/08/17 09:43:47;;;;;;;0.65;0.10;;;18.60;99.90;;;;;;5068990;28;20068;-70
2023/08/17 09:46:13;;;;;;;0.00;0.00;;;18.80;99.90;;;;;;5063605;28;20044;-70
2023/08/17 09:48:40;;;;;;;0.77;0.10;;;18.80;99.90;;;;;;5067329;28;20090;-70
2023/08/17 09:51:06;;;;;;;0.98;0.10;;;18.90;99.90;;;;;;5068751;28;20525;-70
2023/08/17 09:53:38;;;;;;;0.00;0.00;;;18.90;99.90;;;;;;5068849;28;20044;-71
2023/08/17 09:56:13;;;;;;;0.00;0.00;;;18.90;99.90;;;;;;5063107;28;20044;-71
2023/08/17 09:58:53;;;;;;;0.28;0.13;;;18.90;99.90;;;;;;5065651;28;20052;-71
2023/08/17 10:01:34;;;;;;;0.10;0.00;;;19.00;99.90;;;;;;5062729;28;20091;-70
2023/08/17 10:04:06;;;;;;;2.38;0.10;;;18.90;99.90;;;;;;5052684;28;20070;-70
2023/08/17 10:06:34;;;;;;;0.20;0.10;;;18.90;99.90;;;;;;5065124;28;20487;-70
2023/08/17 10:09:00;;;;;;;0.10;0.10;;;18.90;99.90;;;;;;5038206;28;20508;-70
2023/08/17 10:11:30;;;;;;;0.10;0.00;;;18.90;99.90;;;;;;5065706;28;20048;-70
2023/08/17 10:14:02;;;;;;;0.10;0.10;;;19.00;99.90;;;;;;5065079;28;20048;-70
2023/08/17 10:16:53;;;;;;;0.00;0.00;;;19.10;99.90;;;;;;5059377;28;20040;-71
2023/08/17 10:19:44;;;;;;;0.38;0.00;;;19.20;99.90;;;;;;5062131;28;20106;-71
2023/08/17 10:22:16;;;;;;;0.10;0.10;;;19.30;99.90;;;;;;5063625;28;20512;-71
2023/08/17 10:24:43;;;;;;;0.22;0.00;;;19.40;99.90;;;;;;5067506;28;20044;-71
2023/08/17 10:27:10;;;;;;;0.17;0.00;;;19.50;99.90;;;;;;5066159;28;20068;-71
2023/08/17 10:29:38;;;;;;;0.00;0.00;;;19.50;99.90;;;;;;5066454;28;20043;-70
2023/08/17 10:32:05;;;;;;;0.10;0.00;;;19.50;99.90;;;;;;5064827;28;20044;-70
2023/08/17 10:34:32;;;;;;;0.00;0.00;;;19.40;99.90;;;;;;5069161;28;20044;-70
2023/08/17 10:36:58;;;;;;;0.73;0.00;;;19.40;99.90;;;;;;5066973;28;20112;-70
2023/08/17 10:39:28;;;;;;;0.10;0.10;;;19.30;99.90;;;;;;5069392;28;20441;-70
2023/08/17 10:41:55;;;;;;;0.10;0.10;;;19.30;99.90;;;;;;5064040;28;20043;-71
2023/08/17 10:44:42;;;;;;;0.00;0.00;;;19.20;99.90;;;;;;5068727;28;20055;-70
2023/08/17 10:47:27;;;;;;;3.78;0.63;;;19.10;99.90;;;;;;5055483;28;20569;-70
2023/08/17 10:50:03;;;;;;;0.65;0.10;;;19.20;99.90;;;;;;5067540;28;20538;-72
2023/08/17 10:52:39;;;;;;;0.95;0.17;;;19.10;99.90;;;;;;5065030;28;20501;-70
2023/08/17 10:55:11;;;;;;;0.10;0.00;;;19.20;99.90;;;;;;5070695;28;20048;-71
2023/08/17 10:57:39;;;;;;;0.00;0.00;;;19.20;99.90;;;;;;5066960;28;20082;-70
2023/08/17 11:00:07;;;;;;;0.45;0.20;;;19.20;99.90;;;;;;5069894;28;20091;-71
2023/08/17 11:02:33;;;;;;;0.60;0.30;;;19.30;99.90;;;;;;5047625;28;20048;-70
2023/08/17 11:05:00;;;;;;;0.22;0.10;;;19.20;99.90;;;;;;5066391;28;20052;-70
2023/08/17 11:07:38;;;;;;;1.33;0.20;;;19.20;99.90;;;;;;5064747;28;20036;-70
2023/08/17 11:10:12;;;;;;;0.43;0.15;;;19.20;99.90;;;;;;5068339;28;20129;-70
2023/08/17 11:12:40;;;;;;;0.82;0.28;;;19.30;99.90;;;;;;5064871;28;20467;-71
2023/08/17 11:15:07;;;;;;;4.03;0.50;;;19.40;99.90;;;;;;5067911;28;20040;-71
2023/08/17 11:17:32;;;;;;;1.27;0.52;;;19.40;99.90;;;;;;5066722;28;20059;-70
2023/08/17 11:19:58;;;;;;;0.10;0.08;;;19.40;99.90;;;;;;5066330;28;20397;-71
2023/08/17 11:22:24;;;;;;;0.10;0.10;;;19.40;99.90;;;;;;5066629;28;20047;-71
2023/08/17 11:24:51;;;;;;;1.58;0.43;;;19.40;99.90;;;;;;5068864;28;20154;-70
2023/08/17 11:27:18;;;;;;;0.17;0.10;;;19.40;99.90;;;;;;5067016;28;20079;-71
2023/08/17 11:29:45;;;;;;;0.00;0.00;;;19.40;99.90;;;;;;5064375;28;20044;-71
2023/08/17 11:32:11;;;;;;;0.20;0.10;;;19.40;99.90;;;;;;5045664;28;20488;-70
2023/08/17 11:34:37;;;;;;;0.20;0.20;;;19.30;99.90;;;;;;5068547;28;20045;-70
2023/08/17 11:37:04;;;;;;;0.28;0.13;;;19.40;99.90;;;;;;5067493;28;20052;-70
2023/08/17 11:39:36;;;;;;;0.40;0.20;;;19.30;99.90;;;;;;5050619;28;20041;-72
2023/08/17 11:42:01;;;;;;;0.30;0.10;;;19.30;99.90;;;;;;5062283;28;20178;-69
2023/08/17 11:44:27;;;;;;;0.10;0.10;;;19.50;99.90;;;;;;5067005;28;20044;-70
2023/08/17 11:46:53;;;;;;;0.43;0.30;;;19.50;99.90;;;;;;5066533;28;20036;-70
2023/08/17 11:49:19;;;;;;;0.10;0.03;;;19.60;99.90;;;;;;5067697;28;20040;-70
2023/08/17 11:51:45;;;;;;;0.30;0.20;;;19.60;99.90;;;;;;5064073;28;20037;-70
2023/08/17 11:54:10;;;;;;;0.20;0.20;;;19.70;99.90;;;;;;5069623;28;20052;-70
2023/08/17 11:56:41;;;;;;;0.10;0.10;;;19.70;99.90;;;;;;5066864;28;20086;-70
2023/08/17 11:59:13;;;;;;;0.63;0.52;;;19.70;99.90;;;;;;5069720;28;20476;-70
2023/08/17 12:01:39;;;;;;;0.10;0.10;;;19.80;99.90;;;;;;5063903;28;20068;-70
2023/08/17 12:04:06;;;;;;;0.30;0.10;;;19.90;99.90;;;;;;5068885;28;20037;-70
2023/08/17 12:06:32;;;;;;;0.05;0.05;;;19.90;99.90;;;;;;5067249;28;20041;-71
2023/08/17 12:08:58;;;;;;;0.20;0.10;;;19.90;99.90;;;;;;5068357;28;20515;-71
2023/08/17 12:11:25;;;;;;;1.75;0.40;;;20.00;99.90;;;;;;5067313;28;20043;-70
2023/08/17 12:13:53;;;;;;;0.43;0.20;;;20.10;99.90;;;;;;5066421;28;20492;-70
2023/08/17 12:16:20;;;;;;;0.47;0.30;;;20.00;99.90;;;;;;5065689;28;20129;-70
2023/08/17 12:18:50;;;;;;;0.63;0.25;;;19.90;99.90;;;;;;5066664;28;20051;-71
2023/08/17 12:21:19;;;;;;;1.95;0.80;;;19.90;99.90;;;;;;5068329;28;20045;-70
2023/08/17 12:23:44;;;;;;;0.28;0.20;;;19.90;99.90;;;;;;5065376;28;20410;-70
2023/08/17 12:26:10;;;;;;;0.98;0.30;;;19.80;99.90;;;;;;5091553;28;20102;-70
2023/08/17 12:28:36;;;;;;;0.57;0.10;;;19.80;99.90;;;;;;5061071;28;20538;-70
2023/08/17 12:31:03;;;;;;;0.45;0.10;;;19.90;99.90;;;;;;5062251;28;20040;-70
2023/08/17 12:33:29;;;;;;;0.35;0.28;;;19.90;99.90;;;;;;5063875;28;20465;-70
2023/08/17 12:35:55;;;;;;;0.20;0.17;;;19.90;99.90;;;;;;5069880;28;20183;-70
2023/08/17 12:38:23;;;;;;;0.20;0.20;;;20.00;99.90;;;;;;5067659;28;20048;-71
2023/08/17 12:40:49;;;;;;;0.30;0.20;;;20.00;99.90;;;;;;5068623;28;20048;-71
2023/08/17 12:43:15;;;;;;;0.20;0.08;;;19.90;99.90;;;;;;5068528;28;20032;-70
2023/08/17 12:45:40;;;;;;;0.22;0.20;;;19.90;99.90;;;;;;5072622;28;20423;-70
2023/08/17 12:48:06;;;;;;;0.70;0.35;;;19.90;99.90;;;;;;5070899;28;20094;-71